Oconomowoc, Wisconsin
Current Conditions -  °F | °C
As of 2:35 PM on Monday 22 Dec 2014 (Local Time) from KRYV Reporting Station
Drizzle Drizzle  
Wind Chill: 26°   Ceiling: 1300
Heat Index: 35°   Visibility: 3mi
Dew Point: 35°   Wind: 12mph
Humidity: 100%   Direction: 90°E
Pressure: 29.71"   Gusts: NA
Location:  43.11°N, 88.5°W
Report Text: KRYV 222035Z AUTO 09010KT 3SM -DZ SCT009 BKN013 OVC033 02/02 A2971 RMK AO2 P0001 T00150015
Loading
Personal Weather Stations






























Interactive Weather Map New forecast layout! Learn more

10-Day Weather Forecast

Advertisements
Track Severe Weather on mobile